createdAt,value
2019-01-29T00:01:40.312Z,17.00
2019-01-29T00:04:11.854Z,17.00
2019-01-29T00:06:43.814Z,17.00
2019-01-29T00:09:15.817Z,17.00
2019-01-29T00:11:47.500Z,17.00
2019-01-29T00:14:19.305Z,17.00
2019-01-29T00:16:50.856Z,17.00
2019-01-29T00:19:22.654Z,17.00
2019-01-29T00:21:54.802Z,17.00
2019-01-29T00:24:26.386Z,17.00
2019-01-29T00:26:58.065Z,17.10
2019-01-29T00:29:29.782Z,17.10
2019-01-29T00:32:00.476Z,17.00
2019-01-29T00:34:32.069Z,17.00
2019-01-29T00:37:03.754Z,17.00
2019-01-29T00:39:35.391Z,17.00
2019-01-29T00:42:07.042Z,17.00
2019-01-29T00:44:38.775Z,17.00
2019-01-29T00:47:10.369Z,16.90
2019-01-29T00:49:42.061Z,16.90
2019-01-29T00:52:13.864Z,17.00
2019-01-29T00:54:45.593Z,17.00
2019-01-29T00:57:17.271Z,17.00
2019-01-29T00:59:48.821Z,17.00
2019-01-29T01:02:20.630Z,16.90
2019-01-29T01:04:52.340Z,16.90
2019-01-29T01:07:23.898Z,16.90
2019-01-29T01:09:57.195Z,16.90
2019-01-29T01:12:29.061Z,16.90
2019-01-29T01:15:00.775Z,16.90
2019-01-29T01:17:31.568Z,16.90
2019-01-29T01:20:03.565Z,16.90
2019-01-29T01:22:35.318Z,16.90
2019-01-29T01:25:07.753Z,16.90
2019-01-29T01:27:38.521Z,16.90
2019-01-29T01:30:15.309Z,16.90
2019-01-29T01:32:47.052Z,16.90
2019-01-29T01:35:18.826Z,17.00
2019-01-29T01:37:50.576Z,17.00
2019-01-29T01:40:25.180Z,17.00
2019-01-29T01:42:56.770Z,17.00
2019-01-29T01:45:27.478Z,17.00
2019-01-29T01:47:59.302Z,17.00
2019-01-29T01:50:30.816Z,17.00
2019-01-29T01:53:02.544Z,17.00
2019-01-29T01:55:38.730Z,16.90
2019-01-29T01:58:10.462Z,16.90
2019-01-29T02:00:42.310Z,16.90
2019-01-29T02:03:13.827Z,16.90
2019-01-29T02:05:45.740Z,16.80
2019-01-29T02:08:16.451Z,16.80
2019-01-29T02:10:48.314Z,16.80
2019-01-29T02:13:19.926Z,16.80
2019-01-29T02:15:51.741Z,16.80
2019-01-29T02:21:12.309Z,16.80
2019-01-29T02:23:44.414Z,16.80
2019-01-29T02:26:16.056Z,16.80
2019-01-29T02:28:47.894Z,16.70
2019-01-29T02:31:19.424Z,16.80
2019-01-29T02:33:51.053Z,16.80
2019-01-29T02:36:22.746Z,16.80
2019-01-29T02:38:53.477Z,16.70
2019-01-29T02:41:25.313Z,16.70
2019-01-29T02:43:56.822Z,16.70
2019-01-29T02:46:28.589Z,16.70
2019-01-29T02:51:31.383Z,16.70
2019-01-29T02:54:03.488Z,16.70
2019-01-29T02:56:35.481Z,16.70
2019-01-29T02:59:07.311Z,16.70
2019-01-29T03:01:38.878Z,16.70
2019-01-29T03:04:10.773Z,16.70
2019-01-29T03:06:41.947Z,16.70
2019-01-29T03:09:13.781Z,16.70
2019-01-29T03:11:44.517Z,16.70
2019-01-29T03:14:16.413Z,16.70
2019-01-29T03:16:48.074Z,16.70
2019-01-29T03:19:19.821Z,16.70
2019-01-29T03:21:51.626Z,16.70
2019-01-29T03:24:23.333Z,16.70
2019-01-29T03:26:55.087Z,16.60
2019-01-29T03:29:27.064Z,16.60
2019-01-29T03:31:58.801Z,16.60
2019-01-29T03:34:30.425Z,16.60
2019-01-29T03:37:02.639Z,16.60
2019-01-29T03:39:34.415Z,16.60
2019-01-29T03:42:06.720Z,16.60
2019-01-29T03:44:37.477Z,16.60
2019-01-29T03:47:09.317Z,16.60
2019-01-29T03:49:40.864Z,16.50
2019-01-29T03:52:12.777Z,16.50
2019-01-29T03:54:43.512Z,16.50
2019-01-29T03:57:15.315Z,16.50
2019-01-29T03:59:46.879Z,16.50
2019-01-29T04:02:18.399Z,16.50
2019-01-29T04:04:50.080Z,16.50
2019-01-29T04:07:21.748Z,16.40
2019-01-29T04:09:52.465Z,16.40
2019-01-29T04:12:24.305Z,16.40
2019-01-29T04:14:55.893Z,16.40
2019-01-29T04:17:27.709Z,16.40
2019-01-29T04:19:58.473Z,16.40
2019-01-29T04:22:30.309Z,16.40
2019-01-29T04:25:01.876Z,16.40
2019-01-29T04:27:33.407Z,16.40
2019-01-29T04:30:05.658Z,16.40
2019-01-29T04:32:37.619Z,16.40
2019-01-29T04:35:09.411Z,16.40
2019-01-29T04:37:41.320Z,16.40
2019-01-29T04:40:16.428Z,16.40
2019-01-29T04:42:48.317Z,16.40
2019-01-29T04:45:20.561Z,16.40
2019-01-29T04:47:52.756Z,16.40
2019-01-29T04:50:25.313Z,16.40
2019-01-29T04:52:56.843Z,16.40
2019-01-29T04:55:28.641Z,16.40
2019-01-29T04:58:00.373Z,16.40
2019-01-29T05:00:32.334Z,16.40
2019-01-29T05:03:04.314Z,16.40
2019-01-29T05:05:35.908Z,16.40
2019-01-29T05:08:07.775Z,16.40
2019-01-29T05:10:38.695Z,16.40
2019-01-29T05:13:09.668Z,16.40
2019-01-29T05:15:41.394Z,16.40
2019-01-29T05:18:13.323Z,16.40
2019-01-29T05:20:45.004Z,16.40
2019-01-29T05:23:16.757Z,16.50
2019-01-29T05:25:47.957Z,16.50
2019-01-29T05:28:19.806Z,16.50
2019-01-29T05:30:51.249Z,16.50
2019-01-29T05:33:22.902Z,16.50
2019-01-29T05:35:54.405Z,16.50
2019-01-29T05:38:26.070Z,16.50
2019-01-29T05:40:57.756Z,16.50
2019-01-29T05:43:28.450Z,16.50
2019-01-29T05:46:00.304Z,16.40
2019-01-29T05:48:31.865Z,16.50
2019-01-29T05:51:03.385Z,16.50
2019-01-29T05:53:35.329Z,16.50
2019-01-29T05:56:07.328Z,16.50
2019-01-29T05:58:39.074Z,16.50
2019-01-29T06:01:10.781Z,16.50
2019-01-29T06:03:42.668Z,16.50
2019-01-29T06:06:14.405Z,16.50
2019-01-29T06:08:46.026Z,16.50
2019-01-29T06:11:18.082Z,16.50
2019-01-29T06:13:49.989Z,16.50
2019-01-29T06:16:21.753Z,16.50
2019-01-29T06:18:52.493Z,16.50
2019-01-29T06:21:24.432Z,16.50
2019-01-29T06:23:56.293Z,16.50
2019-01-29T06:26:27.999Z,16.50
2019-01-29T06:28:59.744Z,16.50
2019-01-29T06:31:31.101Z,16.50
2019-01-29T06:34:02.779Z,16.50
2019-01-29T06:36:33.508Z,16.50
2019-01-29T06:39:06.805Z,16.50
2019-01-29T06:41:38.393Z,16.50
2019-01-29T06:44:10.071Z,16.50
2019-01-29T06:46:41.806Z,16.50
2019-01-29T06:49:13.605Z,16.50
2019-01-29T06:51:45.368Z,16.50
2019-01-29T06:54:17.069Z,16.50
2019-01-29T06:56:49.061Z,16.50
2019-01-29T06:59:20.756Z,16.50
2019-01-29T07:01:51.520Z,16.50
2019-01-29T07:04:23.322Z,16.50
2019-01-29T07:06:54.863Z,16.50
2019-01-29T07:09:26.400Z,16.50
2019-01-29T07:12:05.396Z,16.50
2019-01-29T07:14:37.308Z,16.50
2019-01-29T07:17:27.552Z,16.50
2019-01-29T07:20:01.712Z,16.50
2019-01-29T07:22:32.508Z,16.50
2019-01-29T07:25:04.306Z,16.50
2019-01-29T07:27:35.860Z,16.50
2019-01-29T07:30:10.754Z,16.50
2019-01-29T07:32:41.487Z,16.40
2019-01-29T07:35:13.276Z,16.40
2019-01-29T07:37:44.852Z,16.40
2019-01-29T07:40:16.809Z,16.40
2019-01-29T07:42:48.624Z,16.40
2019-01-29T07:45:20.568Z,16.40
2019-01-29T07:47:52.300Z,16.40
2019-01-29T07:50:23.919Z,16.40
2019-01-29T07:52:55.773Z,16.40
2019-01-29T07:55:26.496Z,16.40
2019-01-29T07:57:58.315Z,16.40
2019-01-29T08:00:29.846Z,16.40
2019-01-29T08:03:01.560Z,16.40
2019-01-29T08:05:33.370Z,16.40
2019-01-29T08:08:05.316Z,16.40
2019-01-29T08:10:36.843Z,16.40
2019-01-29T08:13:08.786Z,16.40
2019-01-29T08:15:40.403Z,16.50
2019-01-29T08:18:12.369Z,16.50
2019-01-29T08:20:44.311Z,16.50
2019-01-29T08:23:15.865Z,16.50
2019-01-29T08:25:48.110Z,16.50
2019-01-29T08:28:19.882Z,16.60
2019-01-29T08:30:51.746Z,16.50
2019-01-29T08:33:22.476Z,16.60
2019-01-29T08:35:54.313Z,16.60
2019-01-29T08:38:26.369Z,16.60
2019-01-29T08:40:58.058Z,16.60
2019-01-29T08:43:29.743Z,16.60
2019-01-29T08:46:00.599Z,16.60
2019-01-29T08:48:32.378Z,16.60
2019-01-29T08:51:04.300Z,16.60
2019-01-29T08:53:35.847Z,16.60
2019-01-29T08:56:07.751Z,16.60
2019-01-29T08:58:38.653Z,16.60
2019-01-29T09:06:13.064Z,16.80
2019-01-29T09:08:46.630Z,16.70
2019-01-29T09:11:18.341Z,16.70
2019-01-29T09:13:50.073Z,16.70
2019-01-29T09:16:21.757Z,16.70
2019-01-29T09:18:53.429Z,16.70
2019-01-29T09:21:25.378Z,16.70
2019-01-29T09:23:57.061Z,16.70
2019-01-29T09:26:28.798Z,16.70
2019-01-29T09:29:00.430Z,16.70
2019-01-29T09:31:32.297Z,16.70
2019-01-29T09:34:03.852Z,16.80
2019-01-29T09:36:35.372Z,16.80
2019-01-29T09:39:11.745Z,16.80
2019-01-29T09:41:42.638Z,16.80
2019-01-29T09:44:14.405Z,16.80
2019-01-29T09:46:46.300Z,16.90
2019-01-29T09:49:17.822Z,16.90
2019-01-29T09:51:49.368Z,17.00
2019-01-29T09:54:21.070Z,17.00
2019-01-29T09:56:52.779Z,17.00
2019-01-29T09:59:23.480Z,16.90
2019-01-29T10:01:55.307Z,16.90
2019-01-29T10:04:27.059Z,16.90
2019-01-29T10:06:58.771Z,17.00
2019-01-29T10:09:29.647Z,16.90
2019-01-29T10:12:01.340Z,16.90
2019-01-29T10:14:33.057Z,16.90
2019-01-29T10:17:04.777Z,17.00
2019-01-29T10:19:35.494Z,16.90
2019-01-29T10:22:07.268Z,16.90
2019-01-29T10:24:39.048Z,16.90
2019-01-29T10:27:10.693Z,16.90
2019-01-29T10:29:41.485Z,16.90
2019-01-29T10:32:13.297Z,16.90
2019-01-29T10:34:44.856Z,16.90
2019-01-29T10:37:16.725Z,16.90
2019-01-29T10:39:48.368Z,16.90
2019-01-29T10:42:20.056Z,16.90
2019-01-29T10:44:51.790Z,16.90
2019-01-29T10:47:23.470Z,16.90
2019-01-29T10:49:55.359Z,16.90
2019-01-29T10:52:27.054Z,16.90
2019-01-29T10:54:58.806Z,16.90
2019-01-29T10:57:30.729Z,16.90
2019-01-29T11:00:01.473Z,17.00
2019-01-29T11:02:33.309Z,17.00
2019-01-29T11:05:05.391Z,17.00
2019-01-29T11:07:37.059Z,17.00
2019-01-29T11:10:10.705Z,17.00
2019-01-29T11:12:41.453Z,17.00
2019-01-29T11:15:19.713Z,17.10
2019-01-29T11:17:50.435Z,17.00
2019-01-29T11:20:22.792Z,17.10
2019-01-29T11:22:54.361Z,17.10
2019-01-29T11:25:29.314Z,17.10
2019-01-29T11:28:00.863Z,17.10
2019-01-29T11:30:32.715Z,17.10
2019-01-29T11:33:04.349Z,17.10
2019-01-29T11:35:36.038Z,17.10
2019-01-29T11:38:07.803Z,17.10
2019-01-29T11:40:39.786Z,17.10
2019-01-29T11:43:10.483Z,17.20
2019-01-29T11:45:53.297Z,17.10
2019-01-29T11:48:24.859Z,17.10
2019-01-29T11:50:56.752Z,17.10
2019-01-29T11:53:27.723Z,17.10
2019-01-29T11:56:04.701Z,17.10
2019-01-29T11:58:33.058Z,17.00
2019-01-29T12:01:08.293Z,17.00
2019-01-29T12:03:39.854Z,17.00
2019-01-29T12:06:11.650Z,17.10
2019-01-29T12:08:43.362Z,17.10
2019-01-29T12:11:15.037Z,17.10
2019-01-29T12:13:46.777Z,17.10
2019-01-29T12:16:19.401Z,17.10
2019-01-29T12:18:50.786Z,17.20
2019-01-29T12:21:21.880Z,17.20
2019-01-29T12:23:54.123Z,17.20
2019-01-29T12:26:25.849Z,17.20
2019-01-29T12:28:57.587Z,17.20
2019-01-29T12:31:29.310Z,17.20
2019-01-29T12:34:00.876Z,17.20
2019-01-29T12:36:33.289Z,17.30
2019-01-29T12:39:06.610Z,17.30
2019-01-29T12:41:38.741Z,17.30
2019-01-29T12:44:09.452Z,17.20
2019-01-29T12:46:41.052Z,17.30
2019-01-29T12:49:12.752Z,17.20
2019-01-29T12:52:03.086Z,17.20
2019-01-29T12:54:35.311Z,17.20
2019-01-29T12:57:06.900Z,17.20
2019-01-29T12:59:38.770Z,17.20
2019-01-29T13:02:10.061Z,17.20
2019-01-29T13:04:41.741Z,17.20
2019-01-29T13:07:12.521Z,17.20
2019-01-29T13:09:44.305Z,17.20
2019-01-29T13:12:16.307Z,17.30
2019-01-29T13:14:47.778Z,17.30
2019-01-29T13:17:19.635Z,17.30
2019-01-29T13:19:51.370Z,17.30
2019-01-29T13:22:23.302Z,17.30
2019-01-29T13:24:54.853Z,17.30
2019-01-29T13:27:26.424Z,17.30
2019-01-29T13:29:58.306Z,17.30
2019-01-29T13:32:29.887Z,17.30
2019-01-29T13:35:01.391Z,17.30
2019-01-29T13:37:33.261Z,17.30
2019-01-29T13:40:05.777Z,17.30
2019-01-29T13:42:36.481Z,17.30
2019-01-29T13:45:10.866Z,17.30
2019-01-29T13:47:43.316Z,17.30
2019-01-29T13:50:20.749Z,17.20
2019-01-29T13:52:51.510Z,17.20
2019-01-29T13:55:23.309Z,17.20
2019-01-29T13:57:54.983Z,17.20
2019-01-29T14:00:31.721Z,17.20
2019-01-29T14:03:03.298Z,17.20
2019-01-29T14:05:34.859Z,17.10
2019-01-29T14:08:06.783Z,17.10
2019-01-29T14:10:38.385Z,17.10
2019-01-29T14:13:10.414Z,17.10
2019-01-29T14:15:51.305Z,17.00
2019-01-29T14:18:26.756Z,17.00
2019-01-29T14:20:58.063Z,17.00
2019-01-29T14:23:30.059Z,17.00
2019-01-29T14:26:02.280Z,17.00
2019-01-29T14:28:33.912Z,16.90
2019-01-29T14:31:05.724Z,16.90
2019-01-29T14:33:37.767Z,17.00
2019-01-29T14:36:16.443Z,16.90
2019-01-29T14:39:26.775Z,17.00
2019-01-29T14:41:58.757Z,17.00
2019-01-29T14:44:40.238Z,17.00
2019-01-29T14:47:12.315Z,17.00
2019-01-29T14:49:43.797Z,17.00
2019-01-29T14:52:15.588Z,17.00
2019-01-29T14:54:47.353Z,17.00
2019-01-29T14:57:19.310Z,17.00
2019-01-29T14:59:50.836Z,17.00
2019-01-29T15:02:22.761Z,16.90
2019-01-29T15:04:53.467Z,17.10
2019-01-29T15:07:30.458Z,17.30
2019-01-29T15:09:58.790Z,17.50
2019-01-29T15:12:30.779Z,17.70
2019-01-29T15:15:02.615Z,17.80
2019-01-29T15:17:45.589Z,18.00
2019-01-29T15:20:17.364Z,18.10
2019-01-29T15:22:49.320Z,18.20
2019-01-29T15:25:21.321Z,18.30
2019-01-29T15:27:52.903Z,18.40
2019-01-29T15:30:28.105Z,18.50
2019-01-29T15:33:00.709Z,18.50
2019-01-29T15:35:31.492Z,18.60
2019-01-29T15:38:03.301Z,18.50
2019-01-29T15:40:34.913Z,18.50
2019-01-29T15:43:06.743Z,18.40
2019-01-29T15:45:37.589Z,18.30
2019-01-29T15:50:40.603Z,18.10
2019-01-29T15:53:12.810Z,18.00
2019-01-29T15:55:44.609Z,17.90
2019-01-29T15:58:16.337Z,17.80
2019-01-29T16:00:47.889Z,17.70
2019-01-29T16:03:19.622Z,17.60
2019-01-29T16:05:51.395Z,17.60
2019-01-29T16:08:23.088Z,17.50
2019-01-29T16:10:54.779Z,17.50
2019-01-29T16:13:25.461Z,17.50
2019-01-29T16:15:57.308Z,17.50
2019-01-29T16:18:28.990Z,17.50
2019-01-29T16:21:00.781Z,17.50
2019-01-29T16:23:31.500Z,17.50
2019-01-29T16:26:03.440Z,17.50
2019-01-29T16:28:35.307Z,17.50
2019-01-29T16:31:07.033Z,17.50
2019-01-29T16:33:39.781Z,17.50
2019-01-29T16:36:10.486Z,17.50
2019-01-29T16:38:42.309Z,17.60
2019-01-29T16:41:13.869Z,17.60
2019-01-29T16:43:45.755Z,17.60
2019-01-29T16:46:16.493Z,17.60
2019-01-29T16:48:49.616Z,17.50
2019-01-29T16:51:21.397Z,17.50
2019-01-29T16:53:53.748Z,17.50
2019-01-29T16:56:24.499Z,17.50
2019-01-29T16:58:57.300Z,17.60
2019-01-29T17:01:29.043Z,17.60
2019-01-29T17:04:01.293Z,17.50
2019-01-29T17:06:32.875Z,17.50
2019-01-29T17:09:06.069Z,17.30
2019-01-29T17:11:37.748Z,17.40
2019-01-29T17:14:08.625Z,17.30
2019-01-29T17:16:40.765Z,17.30
2019-01-29T17:19:11.556Z,17.30
2019-01-29T17:21:43.357Z,17.40
2019-01-29T17:24:15.023Z,17.40
2019-01-29T17:26:47.268Z,17.40
2019-01-29T17:29:18.825Z,17.40
2019-01-29T17:31:50.643Z,17.40
2019-01-29T17:34:22.465Z,17.40
2019-01-29T17:36:54.272Z,17.40
2019-01-29T17:39:25.874Z,17.50
2019-01-29T17:41:57.720Z,17.50
2019-01-29T17:44:28.469Z,17.50
2019-01-29T17:47:00.403Z,17.50
2019-01-29T17:49:32.067Z,17.40
2019-01-29T17:52:03.756Z,17.40
2019-01-29T17:54:34.503Z,17.30
2019-01-29T17:57:06.340Z,17.30
2019-01-29T17:59:37.840Z,17.20
2019-01-29T18:02:09.696Z,17.20
2019-01-29T18:04:41.758Z,17.30
2019-01-29T18:07:12.485Z,17.30
2019-01-29T18:09:44.306Z,17.30
2019-01-29T18:12:16.311Z,17.40
2019-01-29T18:14:47.909Z,17.50
2019-01-29T18:17:19.762Z,17.50
2019-01-29T18:19:50.502Z,17.40
2019-01-29T18:22:22.310Z,17.40
2019-01-29T18:24:53.894Z,17.40
2019-01-29T18:27:26.305Z,17.30
2019-01-29T18:29:58.406Z,17.30
2019-01-29T18:32:30.063Z,17.20
2019-01-29T18:35:01.711Z,17.20
2019-01-29T18:37:32.482Z,17.10
2019-01-29T18:40:04.309Z,17.10
2019-01-29T18:42:35.829Z,17.10
2019-01-29T18:45:08.903Z,17.10
2019-01-29T18:47:40.639Z,17.00
2019-01-29T18:50:15.296Z,17.10
2019-01-29T18:52:47.360Z,17.20
2019-01-29T18:55:19.304Z,17.20
2019-01-29T18:57:50.866Z,17.20
2019-01-29T19:00:24.827Z,17.30
2019-01-29T19:02:56.609Z,17.40
2019-01-29T19:05:28.553Z,17.50
2019-01-29T19:08:00.264Z,17.50
2019-01-29T19:10:31.993Z,17.50
2019-01-29T19:13:03.795Z,17.60
2019-01-29T19:15:34.543Z,17.60
2019-01-29T19:18:06.260Z,17.50
2019-01-29T19:20:37.778Z,17.50
2019-01-29T19:23:09.616Z,17.40
2019-01-29T19:25:41.346Z,17.40
2019-01-29T19:28:21.637Z,17.30
2019-01-29T19:30:46.594Z,17.30
2019-01-29T19:33:18.386Z,17.30
2019-01-29T19:35:50.315Z,17.30
2019-01-29T19:38:22.066Z,17.40
2019-01-29T19:40:53.779Z,17.40
2019-01-29T19:43:24.520Z,17.30
2019-01-29T19:45:56.363Z,17.30
2019-01-29T19:48:29.841Z,17.20
2019-01-29T19:51:01.746Z,17.20
2019-01-29T19:53:32.656Z,17.10
2019-01-29T19:56:04.344Z,17.10
2019-01-29T19:58:36.061Z,17.10
2019-01-29T20:01:07.774Z,17.10
2019-01-29T20:03:38.485Z,17.10
2019-01-29T20:06:10.502Z,17.10
2019-01-29T20:08:42.297Z,17.10
2019-01-29T20:11:13.901Z,17.10
2019-01-29T20:13:45.390Z,17.10
2019-01-29T20:16:17.056Z,17.10
2019-01-29T20:18:49.165Z,17.10
2019-01-29T20:21:21.729Z,17.00
2019-01-29T20:23:52.598Z,17.00
2019-01-29T20:26:24.343Z,17.00
2019-01-29T20:28:56.063Z,17.00
2019-01-29T20:31:27.739Z,16.90
2019-01-29T20:33:59.394Z,16.90
2019-01-29T20:36:31.370Z,16.90
2019-01-29T20:39:03.045Z,16.80
2019-01-29T20:41:34.780Z,16.80
2019-01-29T20:44:05.587Z,16.80
2019-01-29T20:46:37.346Z,16.80
2019-01-29T20:49:09.294Z,16.70
2019-01-29T20:51:40.868Z,16.70
2019-01-29T20:54:12.402Z,16.70
2019-01-29T20:56:44.382Z,16.70
2019-01-29T20:59:16.036Z,16.70
2019-01-29T21:01:48.952Z,16.70
2019-01-29T21:04:20.741Z,16.60
2019-01-29T21:06:51.472Z,16.60
2019-01-29T21:09:23.302Z,16.60
2019-01-29T21:11:54.801Z,16.60
2019-01-29T21:14:27.296Z,16.50
2019-01-29T21:16:58.820Z,16.50
2019-01-29T21:19:30.602Z,16.50
2019-01-29T21:22:02.437Z,16.50
2019-01-29T21:24:34.313Z,16.50
2019-01-29T21:27:05.822Z,16.50
2019-01-29T21:29:37.364Z,16.50
2019-01-29T21:49:03.294Z,16.70
2019-01-29T21:51:34.804Z,16.70
2019-01-29T21:54:06.466Z,16.70
2019-01-29T21:56:38.258Z,16.60
2019-01-29T21:59:13.333Z,16.60
2019-01-29T22:01:43.354Z,16.50
2019-01-29T22:04:15.057Z,16.50
2019-01-29T22:06:46.758Z,16.40
2019-01-29T22:09:18.325Z,16.40
2019-01-29T22:11:50.050Z,16.40
2019-01-29T22:14:21.736Z,16.40
2019-01-29T22:16:52.501Z,16.40
2019-01-29T22:19:24.308Z,16.30
2019-01-29T22:21:55.867Z,16.30
2019-01-29T22:24:27.605Z,16.30
2019-01-29T22:26:59.310Z,16.30
2019-01-29T22:29:31.766Z,16.30
2019-01-29T22:32:06.362Z,16.20
2019-01-29T22:34:38.882Z,16.20
2019-01-29T22:37:10.896Z,16.20
2019-01-29T22:39:42.816Z,16.20
2019-01-29T22:42:14.849Z,16.20
2019-01-29T22:44:46.725Z,16.20
2019-01-29T22:47:18.671Z,16.20
2019-01-29T22:52:22.057Z,16.20
2019-01-29T23:08:23.304Z,16.20
2019-01-29T23:10:57.332Z,16.40
2019-01-29T23:13:29.056Z,16.40
2019-01-29T23:16:00.890Z,16.30
2019-01-29T23:18:32.930Z,16.30
2019-01-29T23:21:05.297Z,16.20
2019-01-29T23:23:37.265Z,16.20
2019-01-29T23:26:09.478Z,16.20
2019-01-29T23:28:41.522Z,16.20
2019-01-29T23:31:13.314Z,16.10
2019-01-29T23:33:45.791Z,16.10
2019-01-29T23:36:16.699Z,16.00
2019-01-29T23:38:47.643Z,16.00
2019-01-29T23:41:18.943Z,16.00
2019-01-29T23:43:50.827Z,16.00
2019-01-29T23:46:22.906Z,16.00
2019-01-29T23:48:54.877Z,16.00
2019-01-29T23:51:26.759Z,16.00
2019-01-29T23:53:57.612Z,16.00
2019-01-29T23:56:29.866Z,16.00
2019-01-29T23:59:02.022Z,16.00
